createdAt,value
2019-05-21T00:00:25.737Z,13.60
2019-05-21T00:02:54.818Z,13.60
2019-05-21T01:16:11.777Z,13.40
2019-05-21T01:18:40.651Z,13.50
2019-05-21T01:50:51.589Z,13.20
2019-05-21T01:53:20.495Z,13.20
2019-05-21T02:03:14.799Z,13.00
2019-05-21T02:05:43.635Z,13.00
2019-05-21T02:08:12.675Z,12.90
2019-05-21T02:10:41.515Z,12.90
2019-05-21T02:13:10.459Z,12.90
2019-05-21T02:15:39.479Z,12.90
2019-05-21T02:18:08.487Z,13.00
2019-05-21T02:20:37.455Z,12.90
2019-05-21T02:23:06.418Z,12.90
2019-05-21T02:25:35.435Z,12.90
2019-05-21T02:28:04.297Z,12.80
2019-05-21T02:30:33.515Z,12.80
2019-05-21T02:33:02.385Z,12.80
2019-05-21T02:35:31.434Z,12.80
2019-05-21T02:38:00.263Z,12.80
2019-05-21T02:40:29.331Z,12.90
2019-05-21T02:42:58.556Z,12.90
2019-05-21T02:45:27.513Z,12.80
2019-05-21T02:47:56.367Z,12.80
2019-05-21T02:50:25.305Z,12.70
2019-05-21T02:52:56.830Z,12.70
2019-05-21T02:55:25.893Z,12.70
2019-05-21T02:57:54.716Z,12.70
2019-05-21T03:00:32.265Z,12.70
2019-05-21T03:03:01.489Z,12.70
2019-05-21T03:05:30.573Z,12.70
2019-05-21T03:07:59.595Z,12.70
2019-05-21T03:10:28.711Z,12.70
2019-05-21T03:12:57.550Z,12.70
2019-05-21T03:15:26.506Z,12.70
2019-05-21T03:17:55.408Z,12.70
2019-05-21T03:20:24.330Z,12.80
2019-05-21T03:22:53.169Z,12.80
2019-05-21T03:25:22.108Z,12.80
2019-05-21T03:27:51.137Z,12.70
2019-05-21T03:30:20.210Z,12.80
2019-05-21T03:32:49.063Z,12.80
2019-05-21T03:35:18.769Z,12.80
2019-05-21T03:37:47.721Z,12.80
2019-05-21T03:40:16.969Z,12.80
2019-05-21T03:42:45.919Z,12.70
2019-05-21T03:45:15.062Z,12.70
2019-05-21T03:47:44.054Z,12.70
2019-05-21T03:50:13.258Z,12.80
2019-05-21T03:52:42.204Z,12.80
2019-05-21T03:55:11.375Z,12.80
2019-05-21T03:57:40.338Z,12.80
2019-05-21T04:00:11.636Z,12.80
2019-05-21T04:02:40.679Z,12.80
2019-05-21T04:05:09.873Z,12.90
2019-05-21T04:07:38.868Z,12.90
2019-05-21T04:10:15.006Z,12.90
2019-05-21T04:12:47.244Z,12.90
2019-05-21T04:15:18.546Z,13.00
2019-05-21T04:17:56.183Z,12.90
2019-05-21T04:20:25.090Z,13.00
2019-05-21T04:22:54.043Z,13.00
2019-05-21T04:25:23.558Z,13.00
2019-05-21T04:27:52.600Z,13.00
2019-05-21T04:30:21.601Z,13.00
2019-05-21T04:32:50.474Z,13.00
2019-05-21T04:35:19.530Z,13.10
2019-05-21T04:37:48.410Z,13.10
2019-05-21T04:40:17.776Z,13.10
2019-05-21T04:42:46.746Z,13.10
2019-05-21T04:45:15.845Z,13.20
2019-05-21T04:47:44.713Z,13.20
2019-05-21T04:50:13.913Z,13.20
2019-05-21T04:52:42.831Z,13.20
2019-05-21T04:55:12.210Z,13.20
2019-05-21T04:57:41.198Z,13.30
2019-05-21T05:00:10.380Z,13.30
2019-05-21T05:02:39.675Z,13.30
2019-05-21T05:05:08.910Z,13.30
2019-05-21T05:07:37.834Z,13.30
2019-05-21T05:10:07.228Z,13.40
2019-05-21T05:12:36.207Z,13.40
2019-05-21T05:15:06.013Z,13.40
2019-05-21T05:17:34.909Z,13.50
2019-05-21T05:20:04.198Z,13.50
2019-05-21T05:22:33.236Z,13.60
2019-05-21T05:25:02.280Z,13.60
2019-05-21T05:27:31.238Z,13.60
2019-05-21T05:30:00.194Z,13.70
2019-05-21T05:32:28.996Z,13.70
2019-05-21T05:34:59.292Z,13.80
2019-05-21T05:37:42.792Z,13.80
2019-05-21T05:39:58.954Z,13.80
2019-05-21T05:42:28.057Z,13.80
2019-05-21T05:44:57.061Z,13.90
2019-05-21T05:47:26.102Z,13.90
2019-05-21T05:49:56.696Z,14.00
2019-05-21T05:52:25.617Z,14.10
2019-05-21T05:54:54.619Z,14.10
2019-05-21T05:57:23.899Z,14.10
2019-05-21T05:59:52.901Z,14.20
2019-05-21T06:02:21.901Z,14.30
2019-05-21T06:04:50.857Z,14.30
2019-05-21T06:07:20.485Z,14.40
2019-05-21T06:09:49.521Z,14.40
2019-05-21T06:12:18.428Z,14.40
2019-05-21T06:14:47.363Z,14.50
2019-05-21T06:17:16.227Z,14.50
2019-05-21T06:19:45.256Z,14.60
2019-05-21T06:22:16.709Z,14.60
2019-05-21T06:24:50.788Z,14.60
2019-05-21T06:27:20.231Z,14.60
2019-05-21T06:29:56.036Z,14.70
2019-05-21T06:32:26.906Z,14.80
2019-05-21T06:34:56.195Z,14.80
2019-05-21T06:37:25.851Z,14.90
2019-05-21T06:39:57.761Z,15.00
2019-05-21T06:42:26.834Z,15.00
2019-05-21T06:44:56.087Z,15.10
2019-05-21T06:47:25.261Z,15.20
2019-05-21T06:49:54.434Z,15.30
2019-05-21T06:52:23.741Z,15.30
2019-05-21T06:54:52.891Z,15.40
2019-05-21T06:57:22.190Z,15.40
2019-05-21T06:59:52.010Z,15.60
2019-05-21T07:02:21.262Z,15.70
2019-05-21T07:04:50.449Z,15.70
2019-05-21T07:07:19.594Z,15.70
2019-05-21T07:09:48.795Z,15.90
2019-05-21T07:12:18.029Z,15.90
2019-05-21T07:14:47.228Z,16.00
2019-05-21T07:17:16.276Z,16.10
2019-05-21T07:19:45.589Z,16.10
2019-05-21T07:22:14.700Z,16.20
2019-05-21T07:24:43.746Z,16.30
2019-05-21T07:27:12.903Z,16.40
2019-05-21T07:29:41.941Z,16.50
2019-05-21T07:32:11.117Z,16.50
2019-05-21T07:34:40.274Z,16.60
2019-05-21T07:37:09.428Z,16.70
2019-05-21T07:39:38.481Z,16.80
2019-05-21T07:42:07.647Z,16.90
2019-05-21T07:44:36.868Z,17.00
2019-05-21T07:47:05.971Z,17.10
2019-05-21T07:49:35.066Z,17.10
2019-05-21T07:52:04.197Z,17.20
2019-05-21T07:54:33.313Z,17.20
2019-05-21T07:57:02.443Z,17.30
2019-05-21T07:59:31.625Z,17.40
2019-05-21T08:02:00.718Z,17.50
2019-05-21T08:04:30.050Z,17.70
2019-05-21T08:06:59.320Z,17.80
2019-05-21T08:09:29.075Z,17.90
2019-05-21T08:11:58.496Z,18.10
2019-05-21T08:14:27.712Z,18.40
2019-05-21T08:24:33.930Z,23.50
2019-05-21T08:27:04.613Z,24.60
2019-05-21T08:32:03.664Z,25.00
2019-05-21T08:34:35.368Z,25.50
2019-05-21T08:39:37.744Z,26.90
2019-05-21T08:42:09.158Z,27.70
2019-05-21T08:44:41.409Z,28.70
2019-05-21T08:47:23.644Z,29.10
2019-05-21T08:49:54.040Z,29.70
2019-05-21T08:52:26.431Z,29.20
2019-05-21T08:54:57.182Z,29.20
2019-05-21T08:57:30.592Z,29.80
2019-05-21T09:00:08.780Z,29.40
2019-05-21T09:02:39.282Z,28.00
2019-05-21T09:05:09.277Z,28.90
2019-05-21T09:07:39.076Z,28.60
2019-05-21T09:10:09.099Z,29.00
2019-05-21T09:12:42.958Z,28.80
2019-05-21T09:15:19.316Z,28.70
2019-05-21T09:17:50.877Z,29.10
2019-05-21T09:23:05.199Z,27.80
2019-05-21T09:25:40.909Z,26.40
2019-05-21T09:28:11.943Z,25.40
2019-05-21T09:30:41.579Z,24.60
2019-05-21T09:33:11.059Z,25.30
2019-05-21T09:35:41.075Z,26.60
2019-05-21T09:38:11.246Z,27.00
2019-05-21T09:40:41.241Z,26.90
2019-05-21T09:43:11.617Z,27.50
2019-05-21T09:45:41.567Z,26.90
2019-05-21T09:48:11.261Z,26.50
2019-05-21T09:50:40.625Z,26.20
2019-05-21T09:53:10.186Z,25.60
2019-05-21T09:55:40.040Z,25.60
2019-05-21T09:58:34.679Z,26.10
2019-05-21T10:01:34.100Z,26.40
2019-05-21T10:04:03.615Z,26.60
2019-05-21T10:06:33.322Z,26.30
2019-05-21T10:09:03.725Z,26.10
2019-05-21T10:11:33.005Z,26.10
2019-05-21T10:14:03.025Z,26.50
2019-05-21T10:16:33.105Z,26.70
2019-05-21T10:19:02.600Z,26.70
2019-05-21T10:21:31.902Z,26.20
2019-05-21T10:24:14.237Z,25.80
2019-05-21T10:26:43.933Z,26.00
2019-05-21T10:29:13.791Z,26.00
2019-05-21T10:31:46.970Z,26.20
2019-05-21T10:34:29.632Z,27.00
2019-05-21T10:37:01.820Z,27.60
2019-05-21T10:39:42.194Z,27.70
2019-05-21T10:42:11.389Z,27.10
2019-05-21T10:44:40.841Z,26.20
2019-05-21T10:47:10.053Z,25.90
2019-05-21T10:49:40.028Z,25.90
2019-05-21T10:52:09.399Z,26.00
2019-05-21T10:54:38.813Z,26.10
2019-05-21T10:57:48.081Z,26.20
2019-05-21T11:00:22.881Z,26.70
2019-05-21T11:03:26.139Z,26.20
2019-05-21T11:06:08.887Z,25.60
2019-05-21T11:08:27.338Z,25.30
2019-05-21T11:10:57.519Z,25.50
2019-05-21T11:13:26.954Z,25.10
2019-05-21T11:16:00.033Z,24.70
2019-05-21T11:18:31.994Z,24.90
2019-05-21T11:21:03.207Z,25.40
2019-05-21T11:23:35.339Z,25.80
2019-05-21T11:26:07.792Z,26.10
2019-05-21T11:28:39.489Z,26.60
2019-05-21T11:31:11.039Z,27.00
2019-05-21T11:33:41.500Z,26.90
2019-05-21T11:36:16.440Z,27.00
2019-05-21T11:38:48.360Z,26.50
2019-05-21T11:41:25.285Z,26.20
2019-05-21T11:44:04.941Z,26.20
2019-05-21T11:47:34.842Z,26.60
2019-05-21T11:51:01.515Z,27.20
2019-05-21T11:54:37.336Z,27.20
2019-05-21T11:57:39.021Z,26.60
2019-05-21T12:00:42.961Z,25.30
2019-05-21T12:04:07.949Z,25.60
2019-05-21T12:06:48.766Z,25.60
2019-05-21T12:10:17.792Z,25.60
2019-05-21T12:12:52.265Z,25.80
2019-05-21T12:15:30.485Z,25.80
2019-05-21T12:18:21.744Z,26.30
2019-05-21T12:20:55.646Z,27.00
2019-05-21T12:23:30.353Z,27.70
2019-05-21T12:26:06.029Z,28.00
2019-05-21T12:28:40.966Z,28.20
2019-05-21T12:31:21.377Z,28.10
2019-05-21T12:33:59.781Z,27.70
2019-05-21T12:37:13.108Z,27.20
2019-05-21T12:44:16.786Z,27.00
2019-05-21T12:50:50.673Z,25.40
2019-05-21T12:53:28.389Z,25.10
2019-05-21T12:56:07.745Z,25.30
2019-05-21T13:03:02.979Z,25.70
2019-05-21T13:05:47.914Z,25.50
2019-05-21T13:08:23.480Z,25.70
2019-05-21T13:10:58.590Z,25.80
2019-05-21T13:13:48.874Z,25.90
2019-05-21T13:17:39.652Z,25.90
2019-05-21T13:20:11.030Z,25.30
2019-05-21T13:22:48.852Z,25.40
2019-05-21T13:26:20.654Z,25.30
2019-05-21T13:32:35.443Z,25.00
2019-05-21T13:35:05.603Z,24.60
2019-05-21T13:38:27.989Z,25.30
2019-05-21T13:40:57.586Z,25.80
2019-05-21T13:43:26.578Z,25.90
2019-05-21T13:46:00.279Z,25.70
2019-05-21T13:48:39.020Z,25.70
2019-05-21T13:51:10.901Z,25.90
2019-05-21T13:54:48.066Z,26.40
2019-05-21T13:57:17.115Z,27.10
2019-05-21T13:59:46.112Z,27.20
2019-05-21T14:02:15.655Z,27.20
2019-05-21T14:04:44.906Z,26.70
2019-05-21T14:07:13.977Z,26.40
2019-05-21T14:09:43.091Z,25.90
2019-05-21T14:12:12.567Z,25.20
2019-05-21T14:15:20.727Z,25.00
2019-05-21T14:18:23.360Z,25.40
2019-05-21T14:21:50.824Z,24.90
2019-05-21T14:24:28.714Z,24.80
2019-05-21T14:31:40.877Z,25.50
2019-05-21T14:35:01.194Z,25.20
2019-05-21T14:41:29.902Z,23.80
2019-05-21T14:42:56.890Z,24.30
2019-05-21T14:44:41.404Z,23.70
2019-05-21T14:48:21.527Z,23.50
2019-05-21T14:54:57.193Z,22.90
2019-05-21T15:05:07.877Z,22.00
2019-05-21T15:07:37.398Z,21.40
2019-05-21T15:13:23.945Z,20.60
2019-05-21T15:16:00.898Z,20.40
2019-05-21T15:18:52.596Z,20.30
2019-05-21T15:21:27.113Z,20.30
2019-05-21T15:24:01.809Z,20.40
2019-05-21T15:26:37.161Z,20.40
2019-05-21T15:29:19.841Z,20.40
2019-05-21T15:32:09.270Z,20.40
2019-05-21T15:35:17.274Z,20.40
2019-05-21T15:39:15.343Z,20.40
2019-05-21T15:41:53.779Z,20.40
2019-05-21T15:44:56.650Z,20.50
2019-05-21T15:48:15.512Z,20.50
2019-05-21T15:51:05.162Z,20.50
2019-05-21T15:53:54.424Z,20.60
2019-05-21T15:57:36.164Z,20.60
2019-05-21T16:00:27.338Z,20.70
2019-05-21T16:03:47.762Z,20.70
2019-05-21T16:09:50.759Z,20.70
2019-05-21T16:15:51.764Z,20.70
2019-05-21T16:18:59.042Z,20.70
2019-05-21T16:24:43.508Z,20.40
2019-05-21T16:35:43.260Z,20.30
2019-05-21T16:43:26.402Z,20.20
2019-05-21T16:45:46.085Z,20.20
2019-05-21T16:47:44.631Z,20.30
2019-05-21T16:49:21.724Z,20.10
2019-05-21T16:51:54.119Z,20.10
2019-05-21T18:22:23.553Z,19.60
2019-05-21T18:33:42.850Z,19.40
2019-05-21T18:40:35.766Z,19.30
2019-05-21T18:43:13.313Z,19.10
2019-05-21T18:45:43.478Z,19.10
2019-05-21T18:48:32.406Z,19.00
2019-05-21T18:51:09.112Z,18.90
2019-05-21T18:53:46.350Z,18.80
2019-05-21T18:56:25.095Z,18.80
2019-05-21T18:59:41.799Z,18.70
2019-05-21T19:02:17.859Z,18.60
2019-05-21T19:04:57.448Z,18.60
2019-05-21T19:07:37.581Z,18.50
2019-05-21T19:10:11.031Z,18.50
2019-05-21T19:12:41.526Z,18.40
2019-05-21T19:15:15.964Z,18.40
2019-05-21T19:22:00.416Z,18.30
2019-05-21T19:25:04.671Z,18.30
2019-05-21T19:27:35.332Z,18.30
2019-05-21T19:30:29.881Z,18.30
2019-05-21T20:01:46.856Z,18.00
2019-05-21T20:07:56.373Z,17.90
2019-05-21T20:17:04.657Z,17.80
2019-05-21T20:20:01.848Z,17.70
2019-05-21T20:26:42.859Z,17.50
2019-05-21T20:40:25.428Z,17.40
2019-05-21T20:54:04.993Z,17.30
2019-05-21T20:56:43.458Z,17.30
2019-05-21T20:59:42.688Z,17.30
2019-05-21T21:02:33.885Z,17.30
2019-05-21T21:23:30.380Z,17.00
2019-05-21T21:25:48.569Z,16.90
2019-05-21T21:28:30.831Z,16.60
2019-05-21T21:33:34.791Z,16.30
2019-05-21T21:41:28.199Z,16.00
2019-05-21T23:05:45.453Z,15.70
2019-05-21T23:12:32.494Z,15.60
2019-05-21T23:16:18.019Z,15.60
2019-05-21T23:19:37.890Z,15.60
2019-05-21T23:23:07.320Z,15.50
2019-05-21T23:29:15.812Z,15.50
2019-05-21T23:32:16.286Z,15.50
2019-05-21T23:35:26.704Z,15.50
2019-05-21T23:41:37.494Z,15.40
2019-05-21T23:44:46.685Z,15.40
2019-05-21T23:46:55.056Z,15.30
2019-05-21T23:49:34.780Z,15.30
2019-05-21T23:56:02.900Z,15.30
2019-05-21T23:59:04.346Z,15.20
